Home > Products > Valid Products > TAF

000
FTUS41 KLWX 310842 AAA
TAFIAD
TAF AMD
KIAD 310842Z 3109/0112 00000KT P6SM SKC
     FM311400 33006KT P6SM FEW250
     FM312100 27007KT P6SM SCT250
     FM010100 VRB03KT P6SM SCT250=



000
FTUS41 KLWX 310842 AAA
TAFDCA
TAF AMD
KDCA 310842Z 3109/0106 33004KT P6SM SKC
     FM312200 27006KT P6SM SCT250=



000
FTUS41 KLWX 310842 AAA
TAFBWI
TAF AMD
KBWI 310842Z 3109/0112 VRB03KT P6SM SKC
     FM311500 32007KT P6SM SKC
     FM312300 VRB03KT P6SM SCT250=



000
FTUS41 KLWX 310523
TAFMTN
TAF
KMTN 310523Z 3106/0106 NIL=



000
FTUS41 KLWX 310523
TAFCHO
TAF
KCHO 310523Z 3106/0106 00000KT 6SM BR FEW080
     FM311000 00000KT P6SM FEW070
     FM311500 35006KT P6SM FEW250
     FM312300 00000KT P6SM FEW250=



000
FTUS41 KLWX 310523
TAFBWI
TAF
KBWI 310523Z 3106/0112 32004KT P6SM FEW070
     FM312000 30008KT P6SM FEW250
     FM010000 VRB03KT P6SM FEW250=



000
FTUS41 KLWX 310523
TAFDCA
TAF
KDCA 310523Z 3106/0106 VRB03KT P6SM FEW070
     FM311400 33007KT P6SM FEW250
     FM010000 27004KT P6SM FEW250=



000
FTUS41 KLWX 310523
TAFMRB
TAF
KMRB 310523Z 3106/0106 VRB03KT P6SM FEW070
     FM311900 30007KT P6SM FEW250
     FM010200 24004KT P6SM FEW250=



000
FTUS41 KLWX 310523
TAFIAD
TAF
KIAD 310523Z 3106/0112 VRB03KT P6SM FEW070
     FM311400 33007KT P6SM FEW250
     FM010000 VRB03KT P6SM FEW250=



000
FTUS41 KLWX 310523
TAFMTN
TAF
KMTN 310523Z 3106/0106 NIL=



000
FTUS41 KLWX 310523
TAFCHO
TAF
KCHO 310523Z 3106/0106 00000KT 6SM BR FEW080
     FM311000 00000KT P6SM FEW070
     FM311500 35006KT P6SM FEW250
     FM312300 00000KT P6SM FEW250=



000
FTUS41 KLWX 310523
TAFBWI
TAF
KBWI 310523Z 3106/0112 32004KT P6SM FEW070
     FM312000 30008KT P6SM FEW250
     FM010000 VRB03KT P6SM FEW250=



000
FTUS41 KLWX 310523
TAFDCA
TAF
KDCA 310523Z 3106/0106 VRB03KT P6SM FEW070
     FM311400 33007KT P6SM FEW250
     FM010000 27004KT P6SM FEW250=



000
FTUS41 KLWX 310523
TAFMRB
TAF
KMRB 310523Z 3106/0106 VRB03KT P6SM FEW070
     FM311900 30007KT P6SM FEW250
     FM010200 24004KT P6SM FEW250=



000
FTUS41 KLWX 310523
TAFIAD
TAF
KIAD 310523Z 3106/0112 VRB03KT P6SM FEW070
     FM311400 33007KT P6SM FEW250
     FM010000 VRB03KT P6SM FEW250=



000
FTUS41 KLWX 310421 AAB
TAFCHO
TAF AMD
KCHO 310421Z 3104/3124 00000KT P6SM SCT250
      TEMPO 3104/3106 3SM BR
     FM310800 VRB03KT P6SM FEW040 SCT200=



000
FTUS41 KLWX 310421 AAB
TAFCHO
TAF AMD
KCHO 310421Z 3104/3124 00000KT P6SM SCT250
      TEMPO 3104/3106 3SM BR
     FM310800 VRB03KT P6SM FEW040 SCT200=



000
FTUS41 KLWX 310314 AAA
TAFCHO
TAF AMD
KCHO 310314Z 3103/3124 00000KT 3/4SM BR BKN002
     FM310800 VRB03KT P6SM FEW040 SCT200=



000
FTUS41 KLWX 302328
TAFMTN
TAF
KMTN 302328Z 3100/3124 18006KT P6SM FEW040 SCT200
     FM310200 25006KT P6SM FEW040 SCT200
     FM310300 31005KT P6SM FEW040 SCT250
      AMD NOT SKED 3102/3112=



000
FTUS41 KLWX 302328
TAFCHO
TAF
KCHO 302328Z 3100/3124 VRB03KT P6SM VCTS SCT040CB BKN070
     FM310100 VRB03KT P6SM FEW040 SCT200=



000
FTUS41 KLWX 302328
TAFMRB
TAF
KMRB 302328Z 3100/3124 32007KT P6SM FEW040 FEW250=



000
FTUS41 KLWX 302328
TAFIAD
TAF
KIAD 302328Z 3100/0106 19006KT P6SM SCT040 BKN150
     FM310200 25006KT P6SM FEW040 FEW250
     FM310400 31005KT P6SM FEW250=



000
FTUS41 KLWX 302328
TAFBWI
TAF
KBWI 302328Z 3100/0106 VRB03KT P6SM FEW040 SCT200
     FM310600 32007KT P6SM FEW250
     FM010000 VRB03KT P6SM FEW250=



000
FTUS41 KLWX 302328
TAFDCA
TAF
KDCA 302328Z 3100/3124 20005KT P6SM SCT040 BKN200
     FM310300 30005KT P6SM FEW040 SCT250=



000
FTUS41 KLWX 302328
TAFMTN
TAF
KMTN 302328Z 3100/3124 18006KT P6SM FEW040 SCT200
     FM310200 25006KT P6SM FEW040 SCT200
     FM310300 31005KT P6SM FEW040 SCT250
      AMD NOT SKED 3102/3112=



000
FTUS41 KLWX 302328
TAFMRB
TAF
KMRB 302328Z 3100/3124 32007KT P6SM FEW040 FEW250=



000
FTUS41 KLWX 302328
TAFDCA
TAF
KDCA 302328Z 3100/3124 20005KT P6SM SCT040 BKN200
     FM310300 30005KT P6SM FEW040 SCT250=



000
FTUS41 KLWX 302328
TAFCHO
TAF
KCHO 302328Z 3100/3124 VRB03KT P6SM VCTS SCT040CB BKN070
     FM310100 VRB03KT P6SM FEW040 SCT200=



000
FTUS41 KLWX 302328
TAFBWI
TAF
KBWI 302328Z 3100/0106 VRB03KT P6SM FEW040 SCT200
     FM310600 32007KT P6SM FEW250
     FM010000 VRB03KT P6SM FEW250=



000
FTUS41 KLWX 302328
TAFIAD
TAF
KIAD 302328Z 3100/0106 19006KT P6SM SCT040 BKN150
     FM310200 25006KT P6SM FEW040 FEW250
     FM310400 31005KT P6SM FEW250=



000
FTUS41 KLWX 302144 AAC
TAFBWI
TAF AMD
KBWI 302144Z 3022/3124 22006KT P6SM BKN080
     FM310500 29004KT P6SM FEW200
     FM312000 30008KT P6SM FEW250=



000
FTUS41 KLWX 302144 AAB
TAFIAD
TAF AMD
KIAD 302144Z 3022/3124 25006KT P6SM SCT045
     FM310200 VRB03KT P6SM FEW200
     FM311400 32007KT P6SM FEW250=



000
FTUS41 KLWX 302144 AAB
TAFDCA
TAF AMD
KDCA 302144Z 3022/3118 22008KT P6SM SCT060
     FM310100 22004KT P6SM BKN200
     FM310500 30004KT P6SM FEW200=



000
FTUS41 KLWX 302144 AAB
TAFMTN
TAF AMD
KMTN 302144Z 3022/3118 20006KT P6SM BKN070
     FM310300 25004KT P6SM SCT100
     FM310600 31004KT P6SM FEW250=



000
FTUS41 KLWX 302144 AAC
TAFBWI
TAF AMD
KBWI 302144Z 3022/3124 22006KT P6SM BKN080
     FM310500 29004KT P6SM FEW200
     FM312000 30008KT P6SM FEW250=



000
FTUS41 KLWX 302144 AAB
TAFIAD
TAF AMD
KIAD 302144Z 3022/3124 25006KT P6SM SCT045
     FM310200 VRB03KT P6SM FEW200
     FM311400 32007KT P6SM FEW250=



000
FTUS41 KLWX 302144 AAB
TAFMTN
TAF AMD
KMTN 302144Z 3022/3118 20006KT P6SM BKN070
     FM310300 25004KT P6SM SCT100
     FM310600 31004KT P6SM FEW250=



000
FTUS41 KLWX 302134 AAA
TAFCHO
TAF AMD
KCHO 302134Z 3022/3118 VRB04KT P6SM VCTS SCT040CB BKN100
      TEMPO 3022/3023 30012G25KT 3SM -TSRA BKN040CB
     FM310000 33004KT P6SM SCT060
     FM310400 VRB03KT P6SM FEW250=



000
FTUS41 KLWX 302059 AAA
TAFIAD
TAF AMD
KIAD 302059Z 3021/3124 25008KT P6SM SCT250
     FM302300 26004KT P6SM VCTS SCT050CB SCT090
     FM310000 VRB03KT P6SM SCT090
     FM311400 32007KT P6SM FEW250=



000
FTUS41 KLWX 302059 AAA
TAFDCA
TAF AMD
KDCA 302059Z 3021/3118 22009KT P6SM BKN050
     FM302200 22008KT P6SM VCTS BKN050CB
     FM310100 22004KT P6SM BKN090
     FM310200 VRB03KT P6SM SCT250
     FM311400 33007KT P6SM FEW250=



000
FTUS41 KLWX 302059 AAB
TAFBWI
TAF AMD
KBWI 302059Z 3021/3124 22008KT P6SM BKN090
     FM302200 22006KT P6SM VCTS SCT050CB BKN250
     FM310000 20004KT P6SM BKN250
     FM310500 29004KT P6SM FEW250
     FM312000 30008KT P6SM FEW250=



000
FTUS41 KLWX 302059 AAA
TAFDCA
TAF AMD
KDCA 302059Z 3021/3118 22009KT P6SM BKN050
     FM302200 22008KT P6SM VCTS BKN050CB
     FM310100 22004KT P6SM BKN090
     FM310200 VRB03KT P6SM SCT250
     FM311400 33007KT P6SM FEW250=



000
FTUS41 KLWX 301807 AAA
TAFMTN
TAF AMD
KMTN 301807Z 3018/3118 16010KT P6SM VCTS SCT030 BKN080CB
      TEMPO 3018/3020 27015G25KT 3/4SM TSRA BKN040CB
     FM302300 VRB05KT P6SM SCT060
     FM310600 32008KT P6SM FEW250=



000
FTUS41 KLWX 301807 AAA
TAFMTN
TAF AMD
KMTN 301807Z 3018/3118 16010KT P6SM VCTS SCT030 BKN080CB
      TEMPO 3018/3020 27015G25KT 3/4SM TSRA BKN040CB
     FM302300 VRB05KT P6SM SCT060
     FM310600 32008KT P6SM FEW250=



000
FTUS41 KLWX 301806 AAA
TAFBWI
TAF AMD
KBWI 301806Z 3018/3124 20012KT P6SM VCTS SCT030 BKN060CB
      TEMPO 3018/3020 27020G28KT 3/4SM TSRA BKN040CB
     FM310000 VRB05KT P6SM SCT060
     FM310600 32008KT P6SM FEW250=



000
FTUS41 KLWX 301806 AAA
TAFBWI
TAF AMD
KBWI 301806Z 3018/3124 20012KT P6SM VCTS SCT030 BKN060CB
      TEMPO 3018/3020 27020G28KT 3/4SM TSRA BKN040CB
     FM310000 VRB05KT P6SM SCT060
     FM310600 32008KT P6SM FEW250=



000
FTUS41 KLWX 301739
TAFIAD
TAF
KIAD 301739Z 3018/3124 22008KT P6SM VCTS SCT030CB BKN080
      TEMPO 3018/3019 28020G30KT 2SM TSRA BKN020CB
     FM302200 VRB05KT P6SM SCT060
     FM310300 33006KT P6SM FEW250
     FM311800 30008KT P6SM FEW060=



000
FTUS41 KLWX 301739
TAFMTN
TAF
KMTN 301739Z 3018/3118 16010KT P6SM VCTS SCT030 BKN080CB
      TEMPO 3018/3020 29020G28KT 2SM TSRA BKN050CB
     FM302300 VRB05KT P6SM SCT060
     FM310600 32008KT P6SM FEW250=



000
FTUS41 KLWX 301739
TAFMRB
TAF
KMRB 301739Z 3018/3118 22007KT 5SM -RA SCT060
     FM301900 25007KT P6SM SCT070
     FM302200 32010KT P6SM FEW100
     FM310400 VRB04KT P6SM SKC=



000
FTUS41 KLWX 301739
TAFCHO
TAF
KCHO 301739Z 3018/3118 VRB04KT P6SM VCTS SCT040CB BKN100
     FM310000 33004KT P6SM SCT060
     FM310400 VRB03KT P6SM FEW250=



000
FTUS41 KLWX 301739
TAFDCA
TAF
KDCA 301739Z 3018/3118 19011KT P6SM VCTS SCT030CB BKN060
      TEMPO 3018/3020 29025G40KT 1/2SM TSRA BKN050CB
     FM310000 25007KT P6SM SCT060
     FM310300 32008KT P6SM FEW250=



000
FTUS41 KLWX 301739
TAFBWI
TAF
KBWI 301739Z 3018/3124 20009KT P6SM VCTS SCT030 BKN060CB
      TEMPO 3018/3020 29020G28KT 2SM TSRA BKN050CB
     FM310000 VRB05KT P6SM SCT060
     FM310600 32008KT P6SM FEW250=



000
FTUS41 KLWX 301721 AAC
TAFDCA
TAF AMD
KDCA 301721Z 3017/3112 19011KT P6SM VCTS SCT030CB BKN060
      TEMPO 3018/3022 29025G40KT 2SM -TSRA BKN050CB
     FM310000 26006KT P6SM SCT060
     FM310400 32008KT P6SM FEW250=



000
FTUS41 KLWX 301721 AAC
TAFDCA
TAF AMD
KDCA 301721Z 3017/3112 19011KT P6SM VCTS SCT030CB BKN060
      TEMPO 3018/3022 29025G40KT 2SM -TSRA BKN050CB
     FM310000 26006KT P6SM SCT060
     FM310400 32008KT P6SM FEW250=



000
FTUS41 KLWX 301713 AAC
TAFIAD
TAF AMD
KIAD 301713Z 3017/3118 22008KT P6SM VCTS SCT030CB BKN080
      TEMPO 3017/3019 28010G20KT 1/2SM TSRA BKN020CB
     FM302200 VRB05KT P6SM SCT060
     FM310200 32006KT P6SM FEW250=



000
FTUS41 KLWX 301713 AAC
TAFIAD
TAF AMD
KIAD 301713Z 3017/3118 22008KT P6SM VCTS SCT030CB BKN080
      TEMPO 3017/3019 28010G20KT 1/2SM TSRA BKN020CB
     FM302200 VRB05KT P6SM SCT060
     FM310200 32006KT P6SM FEW250=



000
FTUS41 KLWX 301708 AAB
TAFBWI
TAF AMD
KBWI 301708Z 3017/3118 20009KT P6SM VCTS SCT030 BKN060CB
      TEMPO 3018/3022 29014G25KT 3SM -TSRA BKN050CB
     FM310000 VRB05KT P6SM SCT060
     FM310400 32008KT P6SM FEW250=



000
FTUS41 KLWX 301706 AAB
TAFDCA
TAF AMD
KDCA 301706Z 3017/3112 19011KT P6SM VCTS SCT030CB BKN060
      TEMPO 3018/3022 29014G25KT 2SM -TSRA BKN050CB
     FM310000 26006KT P6SM SCT060
     FM310400 32008KT P6SM FEW250=



000
FTUS41 KLWX 301632 AAB
TAFIAD
TAF AMD
KIAD 301632Z 3017/3118 22008KT P6SM VCTS SCT030CB BKN080
      TEMPO 3017/3021 28010G20KT 4SM -TSRA BKN040CB
     FM302200 VRB05KT P6SM SCT060
     FM310200 32006KT P6SM FEW250=



000
FTUS41 KLWX 301632 AAB
TAFIAD
TAF AMD
KIAD 301632Z 3017/3118 22008KT P6SM VCTS SCT030CB BKN080
      TEMPO 3017/3021 28010G20KT 4SM -TSRA BKN040CB
     FM302200 VRB05KT P6SM SCT060
     FM310200 32006KT P6SM FEW250=



000
FTUS41 KLWX 301559 AAC
TAFMRB
TAF AMD
KMRB 301559Z 3016/3112 28010KT P6SM SCT030 BKN070
      TEMPO 3016/3018 2SM -TSRA BKN050CB
     FM301800 28012KT P6SM SCT060
     FM302200 30008KT P6SM FEW100
     FM310700 VRB04KT P6SM SKC=



000
FTUS41 KLWX 301451 AAB
TAFMRB
TAF AMD
KMRB 301451Z 3015/3112 21007KT P6SM SCT030 BKN070
      TEMPO 3015/3018 4SM -TSRA BKN040CB
     FM301800 28007KT P6SM SCT060
     FM302200 31009KT P6SM FEW100
     FM310200 30004KT P6SM SKC=



000
FTUS41 KLWX 301449 AAA
TAFBWI
TAF AMD
KBWI 301449Z 3015/3118 20007KT P6SM SCT070 BKN150
     FM301700 23009KT P6SM VCTS BKN060CB
      TEMPO 3018/3022 4SM -TSRA BKN050CB
     FM310000 VRB05KT P6SM SCT060
     FM310400 32008KT P6SM FEW250=



000
FTUS41 KLWX 301447 AAA
TAFDCA
TAF AMD
KDCA 301447Z 3015/3112 18009KT P6SM SCT030 BKN100
     FM301600 23010KT P6SM VCTS BKN060CB
      TEMPO 3018/3022 4SM -TSRA BKN050CB
     FM310000 26006KT P6SM SCT060
     FM310400 32008KT P6SM FEW250=



000
FTUS41 KLWX 301442 AAA
TAFIAD
TAF AMD
KIAD 301442Z 3015/3118 22008KT P6SM VCTS SCT030CB BKN080
      TEMPO 3017/3021 4SM -TSRA BKN050CB
     FM302200 VRB05KT P6SM SCT060
     FM310200 32006KT P6SM FEW250=



000
FTUS41 KLWX 301146 AAA
TAFMRB
TAF AMD
KMRB 301146Z 3012/3112 16005KT 3SM BR FEW110
     FM301400 VRB05KT P6SM VCTS BKN040CB
      TEMPO 3014/3018 4SM -TSRA BKN040CB
     FM301800 28007KT P6SM VCTS BKN050CB
     FM302200 31009KT P6SM SCT100
     FM310200 30005KT P6SM SKC=



000
FTUS41 KLWX 301146 AAA
TAFMRB
TAF AMD
KMRB 301146Z 3012/3112 16005KT 3SM BR FEW110
     FM301400 VRB05KT P6SM VCTS BKN040CB
      TEMPO 3014/3018 4SM -TSRA BKN040CB
     FM301800 28007KT P6SM VCTS BKN050CB
     FM302200 31009KT P6SM SCT100
     FM310200 30005KT P6SM SKC=



000
FTUS41 KLWX 301141
TAFMTN
TAF
KMTN 301141Z 3012/3112 19007KT P6SM VCSH BKN120
     FM301700 22009KT P6SM VCTS BKN060CB
      TEMPO 3019/3023 4SM -TSRA BKN050CB
     FM310000 VRB05KT P6SM SCT060
     FM310400 32008KT P6SM FEW250=



000
FTUS41 KLWX 301141
TAFBWI
TAF
KBWI 301141Z 3012/3118 19007KT P6SM VCSH BKN120
     FM301600 22009KT P6SM VCTS BKN060CB
      TEMPO 3019/3023 4SM -TSRA BKN050CB
     FM310000 VRB05KT P6SM SCT060
     FM310400 32008KT P6SM FEW250=



000
FTUS41 KLWX 301141
TAFIAD
TAF
KIAD 301141Z 3012/3118 20006KT P6SM BKN150
     FM301500 22008KT P6SM VCTS BKN060CB
      TEMPO 3019/3023 4SM -TSRA BKN050CB
     FM302300 VRB05KT P6SM SCT060
     FM310200 31006KT P6SM FEW250=



000
FTUS41 KLWX 301141
TAFCHO
TAF
KCHO 301141Z 3012/3112 20006KT 6SM BR BKN080
     FM301400 VRB03KT P6SM BKN060
     FM301700 27007KT P6SM VCTS BKN050CB
     FM310000 33004KT P6SM SCT050
     FM310400 00000KT P6SM FEW250=



000
FTUS41 KLWX 301141
TAFMRB
TAF
KMRB 301141Z 3012/3112 VRB03KT P6SM BKN045
     FM301400 VRB03KT 3SM -TSRA BKN040CB
     FM301600 25005KT 3SM TSRA BKN050CB
     FM301800 27007KT P6SM VCTS BKN050CB
     FM302000 29009KT P6SM VCTS SCT060CB
     FM302200 30009KT P6SM SCT100
     FM310200 29005KT P6SM SKC=



000
FTUS41 KLWX 301141
TAFDCA
TAF
KDCA 301141Z 3012/3112 19008KT P6SM BKN150
     FM301600 22010KT P6SM VCTS BKN060CB
      TEMPO 3020/3024 4SM -TSRA BKN050CB
     FM310000 29006KT P6SM SCT060
     FM310400 32008KT P6SM FEW250=



000
FTUS41 KLWX 300911 AAA
TAFDCA
TAF AMD
KDCA 300911Z 3009/3106 19010KT P6SM SCT110
     FM301100 20005KT 6SM BR BKN110
     FM301800 22009KT 6SM SHRA VCTS BKN040CB
     FM310100 29006KT P6SM BKN050
     FM310300 VRB03KT P6SM SCT100=



000
FTUS41 KLWX 300911 AAA
TAFBWI
TAF AMD
KBWI 300911Z 3009/3112 20006KT P6SM SCT110
     FM301200 21005KT P6SM BKN110
     FM301800 21008KT 6SM SHRA VCTS BKN040CB
     FM310100 28005KT P6SM SCT100
     FM310600 32007KT P6SM FEW250=



000
FTUS41 KLWX 300911 AAA
TAFIAD
TAF AMD
KIAD 300911Z 3009/3112 18007KT P6SM BKN100
     FM301200 20004KT P6SM BKN090
     FM301700 22006KT P6SM VCTS BKN045CB
     FM310000 28006KT P6SM SCT050
     FM310400 31004KT P6SM FEW250=



000
FTUS41 KLWX 300540
TAFMRB
TAF
KMRB 300540Z 3006/3106 VRB03KT 5SM BR BKN100
     FM300800 VRB03KT 3SM BR BKN110
     FM301300 VRB03KT P6SM VCTS BKN035CB
     FM301400 VRB03KT 6SM TSRA BKN040CB
     FM301800 27007KT P6SM BKN050
     FM310200 29005KT P6SM SKC=



000
FTUS41 KLWX 300540
TAFCHO
TAF
KCHO 300540Z 3006/3106 00000KT P6SM BKN110
     FM300800 00000KT 5SM BR BKN110
     FM301300 VRB03KT P6SM BKN070
     FM301600 21004KT P6SM VCTS BKN045CB
     FM302200 30007KT P6SM BKN050
     FM310000 33004KT P6SM SCT050
     FM310400 00000KT P6SM FEW250=



000
FTUS41 KLWX 300540
TAFCHO
TAF
KCHO 300540Z 3006/3106 00000KT P6SM BKN110
     FM300800 00000KT 5SM BR BKN110
     FM301300 VRB03KT P6SM BKN070
     FM301600 21004KT P6SM VCTS BKN045CB
     FM302200 30007KT P6SM BKN050
     FM310000 33004KT P6SM SCT050
     FM310400 00000KT P6SM FEW250=



000
FTUS41 KLWX 300540
TAFBWI
TAF
KBWI 300540Z 3006/3112 20005KT P6SM SCT110
     FM301200 21005KT P6SM BKN110
     FM301800 21008KT 6SM SHRA VCTS BKN040CB
     FM310100 00000KT P6SM BKN100
     FM310300 00000KT P6SM SCT100
     FM310600 32007KT P6SM FEW250=



000
FTUS41 KLWX 300540
TAFIAD
TAF
KIAD 300540Z 3006/3112 19004KT P6SM SCT110
     FM300900 18004KT P6SM BKN100
     FM301200 20004KT P6SM BKN090
     FM301700 22006KT P6SM VCTS BKN045CB
     FM310000 28006KT P6SM SCT050
     FM310400 31004KT P6SM FEW250=



000
FTUS41 KLWX 300540
TAFMTN
TAF
KMTN 300540Z 3006/3106 NIL=



000
FTUS41 KLWX 300540
TAFDCA
TAF
KDCA 300540Z 3006/3106 19006KT P6SM SCT110
     FM301100 20005KT 6SM BR BKN110
     FM301800 22009KT 6SM SHRA VCTS BKN040CB
     FM310100 29006KT P6SM BKN050
     FM310300 VRB03KT P6SM SCT100=



000
FTUS41 KLWX 300540
TAFMTN
TAF
KMTN 300540Z 3006/3106 NIL=



000
FTUS41 KLWX 300540
TAFMRB
TAF
KMRB 300540Z 3006/3106 VRB03KT 5SM BR BKN100
     FM300800 VRB03KT 3SM BR BKN110
     FM301300 VRB03KT P6SM VCTS BKN035CB
     FM301400 VRB03KT 6SM TSRA BKN040CB
     FM301800 27007KT P6SM BKN050
     FM310200 29005KT P6SM SKC=



000
FTUS41 KLWX 292336
TAFDCA
TAF
KDCA 292336Z 3000/3024 17008KT P6SM SCT050
     FM300700 19009KT P6SM BKN050
     FM301500 20009KT P6SM SCT050
     FM301600 20009KT P6SM BKN045
     FM301900 24009KT P6SM -SHRA VCTS BKN045CB
     FM302000 28008KT P6SM -SHRA VCTS BKN045CB
     FM302200 31009KT P6SM BKN050=



000
FTUS41 KLWX 292336
TAFIAD
TAF
KIAD 292336Z 3000/3106 17007KT P6SM SCT045
     FM300500 17008KT P6SM BKN045
     FM301100 20009KT 3SM BR BKN150
     FM301400 20009KT P6SM BKN060
     FM301900 28007KT P6SM -SHRA VCTS BKN050CB
     FM302100 32011KT P6SM -SHRA VCTS BKN050CB
     FM302200 32009KT P6SM SCT060
     FM310100 31005KT P6SM FEW150=



000
FTUS41 KLWX 292336
TAFBWI
TAF
KBWI 292336Z 3000/3106 17008KT P6SM SCT050
     FM300700 19009KT P6SM BKN045
     FM301900 22007KT P6SM -SHRA VCTS BKN040CB
     FM302200 29007KT P6SM BKN050
     FM310100 31007KT P6SM SCT130=



000
FTUS41 KLWX 292336
TAFMRB
TAF
KMRB 292336Z 3000/3024 18005KT P6SM BKN040
     FM300600 18005KT 3SM BR SCT070
     FM301200 20006KT 4SM BR SCT120
     FM301300 21006KT 6SM BR BKN060
     FM301400 22006KT P6SM BKN060
     FM301800 30010KT P6SM BKN050
     FM301900 31011KT P6SM SCT070=



000
FTUS41 KLWX 292336
TAFMTN
TAF
KMTN 292336Z 3000/3024 18010KT P6SM SCT050
     FM300700 19011KT P6SM BKN045
     FM301200 20010KT 3SM BR BKN050
     FM301400 20011KT P6SM BKN050
     FM301900 20011KT P6SM -SHRA VCTS BKN040CB
     FM302100 24007KT P6SM -SHRA VCTS BKN040CB
     FM302200 26006KT P6SM BKN050
      AMD NOT SKED 3002/3012=



000
FTUS41 KLWX 292336
TAFCHO
TAF
KCHO 292336Z 3000/3024 19004KT P6SM BKN045
     FM300200 VRB03KT 5SM BR SCT045
     FM300600 00000KT 2SM BR SCT050
     FM301100 20004KT 3SM BR SCT150
     FM301400 21005KT 6SM BR SCT060
     FM301700 22005KT P6SM BKN060
     FM301800 28005KT P6SM BKN060
     FM302100 33009KT P6SM BKN060=



000
FTUS41 KLWX 292059 AAD
TAFDCA
TAF AMD
KDCA 292059Z 2921/3018 18009KT P6SM BKN040
     FM300200 17008KT P6SM SCT050
     FM300700 19009KT P6SM BKN060=



000
FTUS41 KLWX 292059 AAE
TAFBWI
TAF AMD
KBWI 292059Z 2921/3024 17010KT P6SM -SHRA BKN040
     FM292200 18010KT P6SM BKN040
     FM300100 17008KT P6SM SCT040
     FM300700 19009KT P6SM BKN050
     FM301900 22007KT P6SM -SHRA VCTS BKN050CB
     FM302200 29007KT P6SM BKN070=



000
FTUS41 KLWX 292059 AAE
TAFIAD
TAF AMD
KIAD 292059Z 2921/3024 19008KT P6SM BKN040
     FM300300 17007KT P6SM SCT050
     FM300500 17008KT P6SM BKN050
     FM301000 20009KT 3SM BR BKN250
     FM301300 20009KT P6SM BKN070
     FM301900 28007KT P6SM BKN060
     FM302100 32011KT P6SM BKN200=



000
FTUS41 KLWX 291740 AAC
TAFDCA
TAF AMD
KDCA 291740Z 2918/3018 17011KT P6SM VCTS BKN035CB
     FM300000 18008KT P6SM BKN040
     FM301600 20009KT 4SM -SHRA VCTS BKN050CB=



000
FTUS41 KLWX 291740 AAC
TAFMRB
TAF AMD
KMRB 291740Z 2918/3018 VRB04KT P6SM VCTS SCT035CB
     FM300000 18005KT P6SM BKN040
     FM300600 18005KT 3SM BR BKN070
     FM301500 25006KT P6SM BKN070=



000
FTUS41 KLWX 291740 AAC
TAFMTN
TAF AMD
KMTN 291740Z 2918/3018 14006KT P6SM VCSH BKN040
     FM292100 18011KT P6SM VCTS BKN040CB
     FM300000 18010KT P6SM BKN040
     FM301200 20010KT 3SM BR BKN060
     FM301500 19012KT 6SM BR BKN150
     FM301600 19013KT 4SM -SHRA VCTS BKN050CB=



000
FTUS41 KLWX 291740 AAD
TAFIAD
TAF AMD
KIAD 291740Z 2918/3024 20009KT P6SM VCTS BKN035CB
     FM300000 17006KT P6SM BKN045
     FM300900 18004KT 5SM BR BKN050
     FM301200 20009KT P6SM BKN050
     FM301500 20008KT 6SM -SHRA BR BKN060
     FM301900 28007KT P6SM BKN060
     FM302100 32011KT P6SM BKN200=



000
FTUS41 KLWX 291740 AAC
TAFCHO
TAF AMD
KCHO 291740Z 2918/3018 23010KT P6SM VCTS SCT025CB
     FM300000 19004KT 6SM BR BKN050
     FM300300 00000KT 3SM BR BKN050
     FM300600 00000KT 1SM BR SCT015 BKN050
     FM301200 22005KT 3SM BR BKN050
     FM301500 21005KT P6SM BKN070=



000
FTUS41 KLWX 291740 AAD
TAFBWI
TAF AMD
KBWI 291740Z 2918/3024 14006G15KT P6SM VCSH BKN035
      TEMPO 2918/2920 2SM SHRA BR BKN015
     FM300000 18008KT P6SM BKN040
     FM301600 19010KT 6SM -SHRA VCTS BKN050CB
     FM302000 25006KT 6SM -SHRA VCTS BKN050CB
     FM302200 29007KT P6SM SCT070=



000
FTUS41 KLWX 291718 AAC
TAFBWI
TAF AMD
KBWI 291718Z 2917/3018 19003KT P6SM SCT021 BKN035
      TEMPO 2917/2918 3SM -SHRA BR BKN015
     FM301600 23007KT 6SM -SHRA VCTS BKN050CB=



000
FTUS41 KLWX 291718 AAC
TAFBWI
TAF AMD
KBWI 291718Z 2917/3018 19003KT P6SM SCT021 BKN035
      TEMPO 2917/2918 3SM -SHRA BR BKN015
     FM301600 23007KT 6SM -SHRA VCTS BKN050CB=



000
FTUS41 KLWX 291649 AAC
TAFIAD
TAF AMD
KIAD 291649Z 2917/3018 21009KT 5SM -SHRA BR BKN030
     FM291900 17005KT P6SM VCSH SCT030
     FM300200 18004KT P6SM BKN100
     FM300500 19004KT P6SM SCT250
     FM301500 25005KT P6SM SCT050
     FM301600 26006KT P6SM BKN050=



000
FTUS41 KLWX 291618 AAB
TAFMTN
TAF AMD
KMTN 291618Z 2916/3012 13006KT P6SM SCT030
      TEMPO 2916/2918 6SM -SHRA BR SCT030
     FM291800 16005KT P6SM SCT018 SCT050
     FM292100 18008KT P6SM SCT090=



000
FTUS41 KLWX 291557 AAB
TAFBWI
TAF AMD
KBWI 291557Z 2916/3018 19003KT P6SM SCT021 BKN035
      TEMPO 2916/2918 6SM -SHRA BR BKN035
     FM301600 23007KT 6SM -SHRA VCTS BKN050CB=



000
FTUS41 KLWX 291556 AAB
TAFDCA
TAF AMD
KDCA 291556Z 2916/3012 16008KT P6SM SCT050 BKN250
      TEMPO 2916/2918 6SM -SHRA BR BKN050
     FM292300 18005KT P6SM SCT100
     FM300200 18005KT P6SM BKN090
     FM300500 19005KT P6SM SCT250=



000
FTUS41 KLWX 291458 AAA
TAFBWI
TAF AMD
KBWI 291458Z 2915/3018 19003KT P6SM SCT021 BKN035
     FM291600 20005KT P6SM SCT018 SCT050
     FM301600 23007KT 6SM -SHRA VCTS BKN050CB=



000
FTUS41 KLWX 291458 AAB
TAFIAD
TAF AMD
KIAD 291458Z 2915/3018 21006KT P6SM BKN018
     FM291600 20004KT P6SM SCT018 SCT050
     FM292300 17005KT P6SM SCT090
     FM300200 18004KT P6SM BKN100
     FM300500 19004KT P6SM SCT250
     FM301500 25005KT P6SM SCT050
     FM301600 26006KT P6SM BKN050=



000
FTUS41 KLWX 291458 AAB
TAFCHO
TAF AMD
KCHO 291458Z 2915/3012 22004KT 3SM HZ BKN009
     FM291600 19004KT P6SM SCT015 BKN050
     FM291800 17005KT P6SM VCTS BKN050CB
     FM300000 00000KT P6SM BKN090
     FM300500 00000KT P6SM SCT250=



000
FTUS41 KLWX 291458 AAA
TAFDCA
TAF AMD
KDCA 291458Z 2915/3012 16008KT P6SM SCT050 BKN250
     FM292300 18005KT P6SM SCT100
     FM300200 18005KT P6SM BKN090
     FM300500 19005KT P6SM SCT250=



000
FTUS41 KLWX 291458 AAA
TAFMTN
TAF AMD
KMTN 291458Z 2915/3012 14003KT P6SM SCT017 BKN024
     FM291600 16005KT P6SM SCT018 SCT050
     FM292100 18008KT P6SM SCT090=



000
FTUS41 KLWX 291458 AAB
TAFMRB
TAF AMD
KMRB 291458Z 2915/3012 14006KT P6SM OVC016
     FM291600 16006KT P6SM FEW017 SCT050
     FM292000 17005KT P6SM SCT050
     FM300400 VRB03KT P6SM SCT250=



000
FTUS41 KLWX 291458 AAA
TAFDCA
TAF AMD
KDCA 291458Z 2915/3012 16008KT P6SM SCT050 BKN250
     FM292300 18005KT P6SM SCT100
     FM300200 18005KT P6SM BKN090
     FM300500 19005KT P6SM SCT250=



000
FTUS41 KLWX 291458 AAA
TAFBWI
TAF AMD
KBWI 291458Z 2915/3018 19003KT P6SM SCT021 BKN035
     FM291600 20005KT P6SM SCT018 SCT050
     FM301600 23007KT 6SM -SHRA VCTS BKN050CB=



000
FTUS41 KLWX 291458 AAB
TAFCHO
TAF AMD
KCHO 291458Z 2915/3012 22004KT 3SM HZ BKN009
     FM291600 19004KT P6SM SCT015 BKN050
     FM291800 17005KT P6SM VCTS BKN050CB
     FM300000 00000KT P6SM BKN090
     FM300500 00000KT P6SM SCT250=



000
FTUS41 KLWX 291458 AAA
TAFMTN
TAF AMD
KMTN 291458Z 2915/3012 14003KT P6SM SCT017 BKN024
     FM291600 16005KT P6SM SCT018 SCT050
     FM292100 18008KT P6SM SCT090=



000
FTUS41 KLWX 291458 AAB
TAFMRB
TAF AMD
KMRB 291458Z 2915/3012 14006KT P6SM OVC016
     FM291600 16006KT P6SM FEW017 SCT050
     FM292000 17005KT P6SM SCT050
     FM300400 VRB03KT P6SM SCT250=



000
FTUS41 KLWX 291458 AAB
TAFIAD
TAF AMD
KIAD 291458Z 2915/3018 21006KT P6SM BKN018
     FM291600 20004KT P6SM SCT018 SCT050
     FM292300 17005KT P6SM SCT090
     FM300200 18004KT P6SM BKN100
     FM300500 19004KT P6SM SCT250
     FM301500 25005KT P6SM SCT050
     FM301600 26006KT P6SM BKN050=



000
FTUS41 KLWX 291305 AAA
TAFIAD
TAF AMD
KIAD 291305Z 2913/3018 00000KT P6SM OVC015
     FM291400 VRB03KT P6SM BKN050
     FM292300 17005KT P6SM SCT090
     FM300200 18004KT P6SM BKN100
     FM300500 19004KT P6SM SCT250
     FM301500 25005KT P6SM SCT050
     FM301600 26006KT P6SM BKN050=



000
FTUS41 KLWX 291304 AAA
TAFCHO
TAF AMD
KCHO 291304Z 2913/3012 00000KT 2SM BR OVC006
     FM291400 VRB03KT 4SM BR BKN015
     FM291500 VRB03KT P6SM BKN020
     FM291600 18004KT P6SM BKN050
     FM291800 17005KT P6SM VCTS BKN050CB
     FM300000 00000KT P6SM BKN090
     FM300500 00000KT P6SM SCT250=



000
FTUS41 KLWX 291304 AAA
TAFMRB
TAF AMD
KMRB 291304Z 2913/3012 00000KT P6SM SCT009
     FM291500 VRB03KT P6SM BKN050
     FM292000 17005KT P6SM SCT050
     FM300400 VRB03KT P6SM SCT250=



000
FTUS41 KLWX 291134
TAFBWI
TAF
KBWI 291134Z 2912/3018 00000KT 5SM BR SCT015
     FM291300 VRB03KT P6SM SCT250
     FM291800 17005KT P6SM BKN060
     FM291900 17006KT P6SM SCT060
     FM301600 23007KT 6SM -SHRA VCTS BKN050CB=



000
FTUS41 KLWX 291134
TAFCHO
TAF
KCHO 291134Z 2912/3012 00000KT 1SM BR BKN003
     FM291400 VRB03KT 4SM BR BKN015
     FM291500 VRB03KT P6SM BKN020
     FM291600 18004KT P6SM BKN050
     FM291800 17005KT P6SM VCTS BKN050CB
     FM300000 00000KT P6SM BKN090
     FM300500 00000KT P6SM SCT250=



000
FTUS41 KLWX 291134
TAFMRB
TAF
KMRB 291134Z 2912/3012 00000KT 3SM BR SCT015
     FM291500 VRB03KT P6SM BKN050
     FM292000 17005KT P6SM SCT050
     FM300400 VRB03KT P6SM SCT250=



000
FTUS41 KLWX 291134
TAFIAD
TAF
KIAD 291134Z 2912/3018 00000KT 4SM BR OVC015
     FM291400 VRB03KT P6SM BKN050
     FM292300 17005KT P6SM SCT090
     FM300200 18004KT P6SM BKN100
     FM300500 19004KT P6SM SCT250
     FM301500 25005KT P6SM SCT050
     FM301600 26006KT P6SM BKN050=



000
FTUS41 KLWX 291134
TAFMTN
TAF
KMTN 291134Z 2912/3012 00000KT P6SM SCT015
     FM291300 VRB03KT P6SM SCT020
     FM291900 17007KT P6SM SCT060=



000
FTUS41 KLWX 291134
TAFDCA
TAF
KDCA 291134Z 2912/3012 00000KT P6SM SCT015
     FM291400 20004KT P6SM SCT050
     FM291500 20005KT P6SM BKN050
     FM292300 18005KT P6SM SCT100
     FM300200 18005KT P6SM BKN090
     FM300500 19005KT P6SM SCT250=



000
FTUS41 KLWX 291041 AAB
TAFMRB
TAF AMD
KMRB 291041Z 2911/3006 00000KT 1/2SM FG BKN002
     FM291200 VRB03KT 3SM BR BKN025
     FM291300 16003KT P6SM SCT100
     FM291500 16006KT P6SM BKN050
     FM292000 17009KT P6SM SCT050=



000
FTUS41 KLWX 291041 AAB
TAFMRB
TAF AMD
KMRB 291041Z 2911/3006 00000KT 1/2SM FG BKN002
     FM291200 VRB03KT 3SM BR BKN025
     FM291300 16003KT P6SM SCT100
     FM291500 16006KT P6SM BKN050
     FM292000 17009KT P6SM SCT050=



000
FTUS41 KLWX 291024 AAA
TAFMRB
TAF AMD
KMRB 291024Z 2910/3006 00000KT 3/4SM BR BKN002
     FM291200 VRB03KT 3SM BR BKN025
     FM291300 16003KT P6SM SCT100
     FM291500 16006KT P6SM BKN050
     FM292000 17009KT P6SM SCT050=



000
FTUS41 KLWX 290945 AAB
TAFIAD
TAF AMD
KIAD 290945Z 2910/3012 00000KT 3/4SM BR SCT002 BKN008
     FM291200 VRB03KT 3SM BR SCT030
     FM291230 19005KT P6SM SCT040
     FM291500 18005KT P6SM BKN045
     FM300200 17006KT P6SM BKN100=



000
FTUS41 KLWX 290908 AAA
TAFCHO
TAF AMD
KCHO 290908Z 2909/3006 VRB03KT 2SM BR BKN003
     FM291200 VRB03KT 5SM BR BKN025
     FM291300 18004KT P6SM BKN035
     FM291600 16006KT P6SM BKN040=



000
FTUS41 KLWX 290907 AAA
TAFBWI
TAF AMD
KBWI 290907Z 2909/3012 VRB03KT P6SM FEW250
     FM291600 17007KT P6SM SCT060=



000
FTUS41 KLWX 290907 AAA
TAFDCA
TAF AMD
KDCA 290907Z 2909/3006 VRB03KT P6SM FEW012 FEW250
     FM291400 20005KT P6SM SCT050
     FM291800 17007KT P6SM BKN050
     FM292300 17008KT P6SM SCT100
     FM300200 16007KT P6SM BKN090=



000
FTUS41 KLWX 290907 AAA
TAFDCA
TAF AMD
KDCA 290907Z 2909/3006 VRB03KT P6SM FEW012 FEW250
     FM291400 20005KT P6SM SCT050
     FM291800 17007KT P6SM BKN050
     FM292300 17008KT P6SM SCT100
     FM300200 16007KT P6SM BKN090=



000
FTUS41 KLWX 290907 AAA
TAFBWI
TAF AMD
KBWI 290907Z 2909/3012 VRB03KT P6SM FEW250
     FM291600 17007KT P6SM SCT060=



000
FTUS41 KLWX 290906 AAA
TAFIAD
TAF AMD
KIAD 290906Z 2909/3012 00000KT 6SM MIFG FEW012 FEW250
     FM291200 19004KT P6SM SCT090
     FM291500 18005KT P6SM BKN050
     FM300200 17006KT P6SM BKN100=



000
FTUS41 KLWX 290538
TAFIAD
TAF
KIAD 290538Z 2906/3012 VRB03KT P6SM SKC
     FM290800 00000KT 3SM MIFG FEW250
     FM291200 17004KT P6SM SCT090
     FM291500 18005KT P6SM BKN050
     FM300200 17006KT P6SM BKN100=



000
FTUS41 KLWX 290538
TAFBWI
TAF
KBWI 290538Z 2906/3012 VRB03KT P6SM FEW250
     FM291600 17007KT P6SM SCT060=



000
FTUS41 KLWX 290538
TAFMTN
TAF
KMTN 290538Z 2906/3006 NIL=



000
FTUS41 KLWX 290538
TAFDCA
TAF
KDCA 290538Z 2906/3006 VRB03KT P6SM FEW250
     FM291400 20005KT P6SM SCT050
     FM291800 18007KT P6SM BKN050
     FM292300 17008KT P6SM SCT100
     FM300200 16007KT P6SM BKN090=



000
FTUS41 KLWX 290538
TAFMRB
TAF
KMRB 290538Z 2906/3006 VRB03KT P6SM FEW250
     FM290800 00000KT 4SM BR SCT250
     FM291300 VRB03KT P6SM SCT100
     FM291500 14006KT P6SM BKN050
     FM292000 17009KT P6SM SCT050=



000
FTUS41 KLWX 290538
TAFCHO
TAF
KCHO 290538Z 2906/3006 01004KT 3SM BR BKN008
     FM290700 VRB03KT 3SM BR SCT008
     FM291000 15004KT 3SM BR BKN003
     FM291200 16005KT P6SM BKN025
     FM291600 16006KT P6SM BKN050=



000
FTUS41 KLWX 290243 AAA
TAFCHO
TAF AMD
KCHO 290243Z 2903/2924 VRB03KT 3SM BR SCT050
     FM290600 01004KT 1SM BR BKN050
     FM291200 15004KT 3SM BR BKN050
     FM291300 16004KT P6SM BKN050=



000
FTUS41 KLWX 290242 AAA
TAFIAD
TAF AMD
KIAD 290242Z 2903/3006 VRB03KT P6SM FEW050
     FM290400 VRB03KT 3SM BR FEW050
     FM290800 VRB03KT 2SM BR FEW050
     FM291100 VRB03KT P6SM SCT050
     FM291400 18005KT P6SM BKN050=



000
FTUS41 KLWX 290242 AAA
TAFIAD
TAF AMD
KIAD 290242Z 2903/3006 VRB03KT P6SM FEW050
     FM290400 VRB03KT 3SM BR FEW050
     FM290800 VRB03KT 2SM BR FEW050
     FM291100 VRB03KT P6SM SCT050
     FM291400 18005KT P6SM BKN050=



000
FTUS41 KLWX 290027 AAA
TAFMRB
TAF AMD
KMRB 290027Z 2900/2924 VRB03KT P6SM SCT050
      TEMPO 2900/2901 18010G20KT
     FM290300 12004KT 3SM BR SCT050
     FM290600 VRB03KT 1SM BR SCT050
     FM291200 VRB03KT 3SM BR SCT050
     FM291300 VRB03KT P6SM SCT050
     FM291700 16007KT P6SM SCT050=



000
FTUS41 KLWX 290027 AAA
TAFMRB
TAF AMD
KMRB 290027Z 2900/2924 VRB03KT P6SM SCT050
      TEMPO 2900/2901 18010G20KT
     FM290300 12004KT 3SM BR SCT050
     FM290600 VRB03KT 1SM BR SCT050
     FM291200 VRB03KT 3SM BR SCT050
     FM291300 VRB03KT P6SM SCT050
     FM291700 16007KT P6SM SCT050=



000
FTUS41 KLWX 282336
TAFCHO
TAF
KCHO 282336Z 2900/2924 VRB03KT 3SM -TSRA BKN050CB
     FM290200 VRB03KT P6SM VCTS BKN050CB
     FM290300 VRB03KT 3SM BR VCTS BKN050CB
     FM290600 01004KT 1SM BR BKN050
     FM291200 15004KT 3SM BR BKN050
     FM291300 16004KT P6SM BKN050=



000
FTUS41 KLWX 282336
TAFDCA
TAF
KDCA 282336Z 2900/2924 16006KT 5SM -SHRA VCTS BKN050CB
     FM290100 17004KT P6SM SCT050
     FM290600 VRB03KT 3SM BR SCT050
     FM291200 VRB03KT P6SM BKN050
     FM291400 20005KT P6SM SCT050
     FM291800 18007KT P6SM SCT050
     FM292000 18007KT P6SM BKN050=



000
FTUS41 KLWX 282336
TAFBWI
TAF
KBWI 282336Z 2900/3006 17006KT P6SM SCT050
     FM290700 VRB03KT P6SM FEW050
     FM291500 17006KT P6SM SCT050
     FM300400 17008KT P6SM BKN050=



000
FTUS41 KLWX 282336
TAFMTN
TAF
KMTN 282336Z 2900/2924 18006KT P6SM FEW050
     FM291000 VRB03KT P6SM FEW050
     FM291600 18006KT P6SM SCT050
      AMD NOT SKED 2902/2912=



000
FTUS41 KLWX 282336
TAFMRB
TAF
KMRB 282336Z 2900/2924 VRB03KT P6SM SCT050
     FM290300 12004KT 3SM BR SCT050
     FM290600 VRB03KT 1SM BR SCT050
     FM291200 VRB03KT 3SM BR SCT050
     FM291300 VRB03KT P6SM SCT050
     FM291700 16007KT P6SM SCT050=



000
FTUS41 KLWX 282336
TAFIAD
TAF
KIAD 282336Z 2900/3006 16004KT P6SM VCTS BKN050CB
      TEMPO 2900/2901 VRB25KT 3SM TSRA
     FM290200 VRB03KT P6SM FEW050
     FM290600 VRB03KT 3SM BR SCT050
     FM291200 VRB03KT P6SM SCT050
     FM291400 18005KT P6SM BKN050=



000
FTUS41 KLWX 282336
TAFCHO
TAF
KCHO 282336Z 2900/2924 VRB03KT 3SM -TSRA BKN050CB
     FM290200 VRB03KT P6SM VCTS BKN050CB
     FM290300 VRB03KT 3SM BR VCTS BKN050CB
     FM290600 01004KT 1SM BR BKN050
     FM291200 15004KT 3SM BR BKN050
     FM291300 16004KT P6SM BKN050=



000
FTUS41 KLWX 282310 AAD
TAFIAD
TAF AMD
KIAD 282310Z 2823/2924 VRB03KT P6SM VCTS SCT040CB
      TEMPO 2823/2824 VRB20KT 2SM TSRA
     FM290000 VRB03KT P6SM FEW040
     FM290900 VRB03KT 3SM BR SKC
     FM291200 14005KT P6SM FEW250
     FM291700 17009KT P6SM SCT050=



000
FTUS41 KLWX 282310 AAD
TAFIAD
TAF AMD
KIAD 282310Z 2823/2924 VRB03KT P6SM VCTS SCT040CB
      TEMPO 2823/2824 VRB20KT 2SM TSRA
     FM290000 VRB03KT P6SM FEW040
     FM290900 VRB03KT 3SM BR SKC
     FM291200 14005KT P6SM FEW250
     FM291700 17009KT P6SM SCT050=



000
FTUS41 KLWX 282259 AAC
TAFDCA
TAF AMD
KDCA 282259Z 2823/2918 12008KT P6SM VCTS BKN040CB
      TEMPO 2823/2824 VRB25KT 1SM TSRA
     FM290000 15005KT P6SM SKC
     FM290900 VRB03KT P6SM SKC
     FM291500 18007KT P6SM FEW250
     FM291600 17008KT P6SM SCT040=



000
FTUS41 KLWX 282259 AAC
TAFDCA
TAF AMD
KDCA 282259Z 2823/2918 12008KT P6SM VCTS BKN040CB
      TEMPO 2823/2824 VRB25KT 1SM TSRA
     FM290000 15005KT P6SM SKC
     FM290900 VRB03KT P6SM SKC
     FM291500 18007KT P6SM FEW250
     FM291600 17008KT P6SM SCT040=



000
FTUS41 KLWX 282257 AAB
TAFCHO
TAF AMD
KCHO 282257Z 2823/2918 VRB04KT P6SM VCTS SCT030CB
      TEMPO 2823/2824 VRB25KT 2SM -TSRA
     FM290000 00000KT P6SM SCT030
     FM290300 00000KT 3SM BR SKC
     FM290600 00000KT 2SM BR BKN015
     FM290900 00000KT 1SM BR BKN002
     FM291200 00000KT 4SM BR SCT015
     FM291300 12006KT P6SM SCT030=



000
FTUS41 KLWX 282235 AAC
TAFIAD
TAF AMD
KIAD 282235Z 2823/2924 VRB03KT P6SM VCTS SCT040CB
      TEMPO 2823/2824 VRB20KT 5SM -TSRA
     FM290000 VRB03KT P6SM FEW040
     FM290900 VRB03KT 3SM BR SKC
     FM291200 14005KT P6SM FEW250
     FM291700 17009KT P6SM SCT050=



000
FTUS41 KLWX 282203 AAA
TAFCHO
TAF AMD
KCHO 282203Z 2822/2918 VRB04KT P6SM VCTS SCT030CB
      TEMPO 2822/2823 VRB10KT 2SM -TSRA
     FM290000 00000KT P6SM SCT030
     FM290300 00000KT 3SM BR SKC
     FM290600 00000KT 2SM BR BKN015
     FM290900 00000KT 1SM BR BKN002
     FM291200 00000KT 4SM BR SCT015
     FM291300 12006KT P6SM SCT030=



000
FTUS41 KLWX 282151 AAB
TAFIAD
TAF AMD
KIAD 282151Z 2822/2924 VRB03KT P6SM VCTS SCT040CB
     FM290000 VRB03KT P6SM SKC
     FM290900 VRB03KT 3SM BR SKC
     FM291200 14005KT P6SM FEW250
     FM291700 17009KT P6SM SCT050=



000
FTUS41 KLWX 282151 AAB
TAFIAD
TAF AMD
KIAD 282151Z 2822/2924 VRB03KT P6SM VCTS SCT040CB
     FM290000 VRB03KT P6SM SKC
     FM290900 VRB03KT 3SM BR SKC
     FM291200 14005KT P6SM FEW250
     FM291700 17009KT P6SM SCT050=



000
FTUS41 KLWX 282144 AAB
TAFDCA
TAF AMD
KDCA 282144Z 2822/2918 12008KT P6SM VCTS BKN040CB
     FM290000 15005KT P6SM SKC
     FM290900 VRB03KT P6SM SKC
     FM291500 18007KT P6SM FEW250
     FM291600 17008KT P6SM SCT040=



000
FTUS41 KLWX 282059 AAA
TAFBWI
TAF AMD
KBWI 282059Z 2821/2924 15004KT P6SM SCT040
     FM290500 00000KT 6SM BR SKC
     FM290900 00000KT 3SM BR SKC
     FM291200 00000KT P6SM SKC
     FM291500 16007KT P6SM FEW040
     FM292000 16008KT P6SM SCT040=



000
FTUS41 KLWX 282059 AAA
TAFBWI
TAF AMD
KBWI 282059Z 2821/2924 15004KT P6SM SCT040
     FM290500 00000KT 6SM BR SKC
     FM290900 00000KT 3SM BR SKC
     FM291200 00000KT P6SM SKC
     FM291500 16007KT P6SM FEW040
     FM292000 16008KT P6SM SCT040=



000
FTUS41 KLWX 282058 AAA
TAFDCA
TAF AMD
KDCA 282058Z 2821/2918 12008KT P6SM VCSH SCT040
     FM282300 15005KT P6SM FEW040
     FM290000 15005KT P6SM SKC
     FM290900 VRB03KT P6SM SKC
     FM291500 18007KT P6SM FEW250
     FM291600 17008KT P6SM SCT040=



000
FTUS41 KLWX 282058 AAA
TAFDCA
TAF AMD
KDCA 282058Z 2821/2918 12008KT P6SM VCSH SCT040
     FM282300 15005KT P6SM FEW040
     FM290000 15005KT P6SM SKC
     FM290900 VRB03KT P6SM SKC
     FM291500 18007KT P6SM FEW250
     FM291600 17008KT P6SM SCT040=



000
FTUS41 KLWX 282054 AAA
TAFIAD
TAF AMD
KIAD 282054Z 2821/2924 VRB03KT P6SM SCT040
     FM290000 VRB03KT P6SM SKC
     FM290900 VRB03KT 3SM BR SKC
     FM291200 14005KT P6SM FEW250
     FM291700 17009KT P6SM SCT050=



000
FTUS41 KLWX 281737
TAFMTN
TAF
KMTN 281737Z 2818/2918 16007KT P6SM SCT020
     FM290800 00000KT 5SM BR SKC
     FM291600 17007KT P6SM FEW250=



000
FTUS41 KLWX 281737
TAFMRB
TAF
KMRB 281737Z 2818/2918 VRB04KT P6SM SCT030
     FM282200 00000KT P6SM SKC
     FM290000 VRB03KT 3SM BR SKC
     FM290900 VRB03KT 1SM BR BKN015
     FM291200 09004KT 4SM BR SCT015
     FM291300 VRB04KT P6SM SCT030
     FM291700 15010KT P6SM SCT040=



000
FTUS41 KLWX 281737
TAFIAD
TAF
KIAD 281737Z 2818/2924 VRB03KT P6SM SCT040
     FM290000 VRB03KT P6SM SKC
     FM290900 VRB03KT 3SM BR SKC
     FM291200 14005KT P6SM FEW250
     FM291700 17009KT P6SM SCT050=



000
FTUS41 KLWX 281737
TAFDCA
TAF
KDCA 281737Z 2818/2918 VRB03KT P6SM SCT040
     FM290000 17005KT P6SM SKC
     FM290900 VRB03KT P6SM SKC
     FM291500 18007KT P6SM FEW250
     FM291600 17008KT P6SM SCT040=



000
FTUS41 KLWX 281737
TAFBWI
TAF
KBWI 281737Z 2818/2924 15004KT P6SM SCT040
     FM290500 00000KT 6SM BR SKC
     FM290900 00000KT 3SM BR SKC
     FM291200 00000KT P6SM SKC
     FM291500 16007KT P6SM FEW040
     FM292000 16008KT P6SM SCT040=



000
FTUS41 KLWX 281737
TAFCHO
TAF
KCHO 281737Z 2818/2918 VRB04KT P6SM VCTS SCT030CB
     FM290000 00000KT P6SM SCT030
     FM290300 00000KT 3SM BR SKC
     FM290600 00000KT 2SM BR BKN015
     FM290900 00000KT 1SM BR BKN002
     FM291200 00000KT 4SM BR SCT015
     FM291300 12006KT P6SM SCT030=



000
FTUS41 KLWX 281737
TAFMTN
TAF
KMTN 281737Z 2818/2918 16007KT P6SM SCT020
     FM290800 00000KT 5SM BR SKC
     FM291600 17007KT P6SM FEW250=



000
FTUS41 KLWX 281737
TAFCHO
TAF
KCHO 281737Z 2818/2918 VRB04KT P6SM VCTS SCT030CB
     FM290000 00000KT P6SM SCT030
     FM290300 00000KT 3SM BR SKC
     FM290600 00000KT 2SM BR BKN015
     FM290900 00000KT 1SM BR BKN002
     FM291200 00000KT 4SM BR SCT015
     FM291300 12006KT P6SM SCT030=



000
FTUS41 KLWX 281737
TAFDCA
TAF
KDCA 281737Z 2818/2918 VRB03KT P6SM SCT040
     FM290000 17005KT P6SM SKC
     FM290900 VRB03KT P6SM SKC
     FM291500 18007KT P6SM FEW250
     FM291600 17008KT P6SM SCT040=



000
FTUS41 KLWX 281737
TAFBWI
TAF
KBWI 281737Z 2818/2924 15004KT P6SM SCT040
     FM290500 00000KT 6SM BR SKC
     FM290900 00000KT 3SM BR SKC
     FM291200 00000KT P6SM SKC
     FM291500 16007KT P6SM FEW040
     FM292000 16008KT P6SM SCT040=



000
FTUS41 KLWX 281737
TAFMRB
TAF
KMRB 281737Z 2818/2918 VRB04KT P6SM SCT030
     FM282200 00000KT P6SM SKC
     FM290000 VRB03KT 3SM BR SKC
     FM290900 VRB03KT 1SM BR BKN015
     FM291200 09004KT 4SM BR SCT015
     FM291300 VRB04KT P6SM SCT030
     FM291700 15010KT P6SM SCT040=



000
FTUS41 KLWX 281737
TAFIAD
TAF
KIAD 281737Z 2818/2924 VRB03KT P6SM SCT040
     FM290000 VRB03KT P6SM SKC
     FM290900 VRB03KT 3SM BR SKC
     FM291200 14005KT P6SM FEW250
     FM291700 17009KT P6SM SCT050=



000
FTUS41 KLWX 281445 AAA
TAFBWI
TAF AMD
KBWI 281445Z 2815/2918 VRB04KT P6SM SCT030
     FM281800 10006KT P6SM SCT050
     FM290200 16006KT P6SM FEW050
     FM290800 00000KT P6SM FEW050
     FM291500 VRB03KT P6SM FEW250=



000
FTUS41 KLWX 281444 AAA
TAFDCA
TAF AMD
KDCA 281444Z 2815/2912 VRB04KT P6SM FEW030
     FM281700 VRB04KT P6SM SCT050
     FM290000 13006KT P6SM SCT050
     FM290800 00000KT P6SM FEW050=



000
FTUS41 KLWX 281444 AAA
TAFDCA
TAF AMD
KDCA 281444Z 2815/2912 VRB04KT P6SM FEW030
     FM281700 VRB04KT P6SM SCT050
     FM290000 13006KT P6SM SCT050
     FM290800 00000KT P6SM FEW050=



000
FTUS41 KLWX 281443 AAA
TAFIAD
TAF AMD
KIAD 281443Z 2815/2918 31006KT P6SM SCT030
     FM281700 VRB04KT P6SM SCT050
     FM291000 00000KT 5SM BR SKC
     FM291200 VRB03KT P6SM SKC=



000
FTUS41 KLWX 281139
TAFCHO
TAF
KCHO 281139Z 2812/2912 00000KT 2SM BR BKN001
     FM281300 VRB03KT 4SM BR SKC
     FM281400 VRB03KT P6SM SKC
     FM281800 10006KT P6SM VCTS BKN050CB
     FM290000 VRB03KT P6SM FEW050
     FM290300 VRB03KT 2SM BR SKC=



000
FTUS41 KLWX 281139
TAFDCA
TAF
KDCA 281139Z 2812/2912 00000KT P6SM SKC
     FM281700 VRB04KT P6SM SCT050
     FM290000 13006KT P6SM SCT050
     FM290800 00000KT P6SM FEW050=



000
FTUS41 KLWX 281139
TAFCHO
TAF
KCHO 281139Z 2812/2912 00000KT 2SM BR BKN001
     FM281300 VRB03KT 4SM BR SKC
     FM281400 VRB03KT P6SM SKC
     FM281800 10006KT P6SM VCTS BKN050CB
     FM290000 VRB03KT P6SM FEW050
     FM290300 VRB03KT 2SM BR SKC=



000
FTUS41 KLWX 281139
TAFBWI
TAF
KBWI 281139Z 2812/2918 00000KT 5SM BR SCT006
     FM281300 00000KT P6SM SKC
     FM281800 10006KT P6SM SCT050
     FM290200 16006KT P6SM FEW050
     FM290800 00000KT P6SM FEW050
     FM291500 VRB03KT P6SM FEW250=



000
FTUS41 KLWX 281139
TAFIAD
TAF
KIAD 281139Z 2812/2918 VRB03KT P6SM SKC
     FM281700 VRB04KT P6SM SCT050
     FM291000 00000KT 5SM BR SKC
     FM291200 VRB03KT P6SM SKC=



000
FTUS41 KLWX 281139
TAFMTN
TAF
KMTN 281139Z 2812/2912 00000KT 5SM BR FEW200
     FM281300 00000KT P6SM SKC
     FM290200 17006KT P6SM FEW050
     FM290900 00000KT P6SM FEW050=



000
FTUS41 KLWX 281139
TAFMRB
TAF
KMRB 281139Z 2812/2912 00000KT 3SM BR SKC
     FM281300 VRB03KT P6SM SKC
     FM290500 00000KT 4SM BR SKC=



000
FTUS41 KLWX 281139
TAFMRB
TAF
KMRB 281139Z 2812/2912 00000KT 3SM BR SKC
     FM281300 VRB03KT P6SM SKC
     FM290500 00000KT 4SM BR SKC=



000
FTUS41 KLWX 281139
TAFBWI
TAF
KBWI 281139Z 2812/2918 00000KT 5SM BR SCT006
     FM281300 00000KT P6SM SKC
     FM281800 10006KT P6SM SCT050
     FM290200 16006KT P6SM FEW050
     FM290800 00000KT P6SM FEW050
     FM291500 VRB03KT P6SM FEW250=



000
FTUS41 KLWX 281139
TAFMTN
TAF
KMTN 281139Z 2812/2912 00000KT 5SM BR FEW200
     FM281300 00000KT P6SM SKC
     FM290200 17006KT P6SM FEW050
     FM290900 00000KT P6SM FEW050=



000
FTUS41 KLWX 281139
TAFDCA
TAF
KDCA 281139Z 2812/2912 00000KT P6SM SKC
     FM281700 VRB04KT P6SM SCT050
     FM290000 13006KT P6SM SCT050
     FM290800 00000KT P6SM FEW050=



000
FTUS41 KLWX 281139
TAFIAD
TAF
KIAD 281139Z 2812/2918 VRB03KT P6SM SKC
     FM281700 VRB04KT P6SM SCT050
     FM291000 00000KT 5SM BR SKC
     FM291200 VRB03KT P6SM SKC=



    US Dept of Commerce
    National Oceanic and Atmospheric Administration
    National Weather Service
    1325 East West Highway
    Silver Spring, MD 20910
    Page Author: NWS Internet Services Team
Disclaimer
Information Quality
Credits
Glossary
Privacy Policy
Freedom of Information Act (FOIA)
About Us
Career Opportunities